createdAt,value
2018-08-04T00:04:29.375Z,51.86
2018-08-04T00:06:59.587Z,51.95
2018-08-04T00:09:28.710Z,51.96
2018-08-04T00:11:58.588Z,52.07
2018-08-04T00:14:35.341Z,52.13
2018-08-04T00:17:06.063Z,51.30
2018-08-04T00:19:35.640Z,52.21
2018-08-04T00:22:12.069Z,52.16
2018-08-04T00:24:44.804Z,50.99
2018-08-04T00:32:49.980Z,52.08
2018-08-04T00:35:19.580Z,52.10
2018-08-04T00:37:56.697Z,51.27
2018-08-04T00:40:26.399Z,52.22
2018-08-04T00:43:12.943Z,52.39
2018-08-04T00:48:29.227Z,53.01
2018-08-04T00:51:05.864Z,53.09
2018-08-04T00:53:38.762Z,53.08
2018-08-04T00:56:15.378Z,53.65
2018-08-04T00:58:52.155Z,53.77
2018-08-04T01:06:57.066Z,53.70
2018-08-04T01:09:27.738Z,52.34
2018-08-04T01:11:57.551Z,53.59
2018-08-04T01:14:30.073Z,53.78
2018-08-04T01:17:06.663Z,53.75
2018-08-04T01:25:10.704Z,54.13
2018-08-04T01:27:47.334Z,54.08
2018-08-04T01:33:04.767Z,54.46
2018-08-04T01:35:34.749Z,54.59
2018-08-04T01:38:19.112Z,54.36
2018-08-04T01:40:51.699Z,52.57
2018-08-04T01:43:21.465Z,53.87
2018-08-04T01:45:52.361Z,53.67
2018-08-04T01:48:22.074Z,54.26
2018-08-04T01:50:59.162Z,54.23
2018-08-04T01:56:16.302Z,54.46
2018-08-04T01:58:46.080Z,55.66
2018-08-04T02:01:15.685Z,55.18
2018-08-04T02:03:46.428Z,56.02
2018-08-04T02:06:22.866Z,56.15
2018-08-04T02:08:58.246Z,56.41
2018-08-04T02:11:29.189Z,56.50
2018-08-04T02:13:58.937Z,56.68
2018-08-04T02:16:35.686Z,57.01
2018-08-04T02:19:04.483Z,57.12
2018-08-04T02:21:34.070Z,57.06
2018-08-04T02:26:58.024Z,56.67
2018-08-04T02:29:30.955Z,57.07
2018-08-04T02:32:00.641Z,57.45
2018-08-04T02:37:32.561Z,56.88
2018-08-04T02:40:03.405Z,57.20
2018-08-04T02:42:36.221Z,57.85
2018-08-04T02:45:05.078Z,57.78
2018-08-04T02:47:37.506Z,57.19
2018-08-04T02:50:08.281Z,57.80
2018-08-04T02:52:39.224Z,56.56
2018-08-04T03:00:50.949Z,58.03
2018-08-04T03:03:35.798Z,58.09
2018-08-04T03:06:12.275Z,57.66
2018-08-04T03:08:42.164Z,57.96
2018-08-04T03:11:11.444Z,58.16
2018-08-04T03:16:43.456Z,57.54
2018-08-04T03:19:12.492Z,57.63
2018-08-04T03:21:41.594Z,57.83
2018-08-04T03:26:58.221Z,58.22
2018-08-04T03:32:15.518Z,58.43
2018-08-04T03:34:45.433Z,57.81
2018-08-04T03:37:18.258Z,58.52
2018-08-04T03:39:48.128Z,58.98
2018-08-04T03:42:17.340Z,58.61
2018-08-04T03:44:46.597Z,58.44
2018-08-04T03:47:16.165Z,58.45
2018-08-04T03:55:21.182Z,58.69
2018-08-04T03:57:50.944Z,59.06
2018-08-04T04:00:35.368Z,59.36
2018-08-04T04:03:04.964Z,59.30
2018-08-04T04:05:34.837Z,59.48
2018-08-04T04:10:52.169Z,59.43
2018-08-04T04:13:22.851Z,59.21
2018-08-04T04:15:52.744Z,59.07
2018-08-04T04:18:29.351Z,59.43
2018-08-04T04:20:59.090Z,59.11
2018-08-04T04:23:29.641Z,59.16
2018-08-04T04:26:00.327Z,59.08
2018-08-04T04:28:29.086Z,57.64
2018-08-04T04:30:59.049Z,58.79
2018-08-04T04:33:28.678Z,58.88
2018-08-04T04:35:58.444Z,58.52
2018-08-04T04:38:28.120Z,58.22
2018-08-04T04:40:57.732Z,58.00
2018-08-04T04:43:34.385Z,58.05
2018-08-04T04:46:04.173Z,58.15
2018-08-04T04:48:33.974Z,57.81
2018-08-04T04:51:10.319Z,57.64
2018-08-04T04:53:40.042Z,57.83
2018-08-04T04:56:10.765Z,57.68
2018-08-04T05:01:27.156Z,57.52
2018-08-04T05:04:03.795Z,57.71
2018-08-04T05:06:33.557Z,56.83
2018-08-04T05:09:02.232Z,58.12
2018-08-04T05:11:31.926Z,58.49
2018-08-04T05:14:04.731Z,56.61
2018-08-04T05:16:34.413Z,57.92
2018-08-04T05:19:04.049Z,58.37
2018-08-04T05:21:33.083Z,58.27
2018-08-04T05:24:02.920Z,58.34
2018-08-04T05:26:32.548Z,56.46
2018-08-04T05:29:01.594Z,57.63
2018-08-04T05:31:32.218Z,57.90
2018-08-04T05:42:24.055Z,56.71
2018-08-04T05:44:52.696Z,56.35
2018-08-04T05:47:29.580Z,53.74
2018-08-04T05:49:59.213Z,54.92
2018-08-04T05:52:27.973Z,54.73
2018-08-04T05:54:58.909Z,54.03
2018-08-04T05:57:27.958Z,53.60
2018-08-04T05:59:57.599Z,53.27
2018-08-04T06:02:27.995Z,53.18
2018-08-04T06:07:44.337Z,52.41
2018-08-04T06:10:20.971Z,51.95
2018-08-04T06:18:26.999Z,50.21
2018-08-04T06:20:56.673Z,49.40
2018-08-04T06:23:26.482Z,49.18
2018-08-04T06:28:47.547Z,48.99
2018-08-04T06:31:16.489Z,48.40
2018-08-04T06:33:48.333Z,47.89
2018-08-04T06:36:17.299Z,47.77
2018-08-04T06:38:45.967Z,47.61
2018-08-04T06:41:18.749Z,46.93
2018-08-04T06:43:55.199Z,46.82
2018-08-04T06:49:11.588Z,44.75
2018-08-04T06:51:40.367Z,44.48
2018-08-04T06:54:10.147Z,41.09
2018-08-04T06:56:39.831Z,42.26
2018-08-04T07:02:03.867Z,40.45
2018-08-04T07:04:33.522Z,42.10
2018-08-04T07:07:03.428Z,42.63
2018-08-04T07:09:33.127Z,42.64
2018-08-04T07:12:02.736Z,41.61
2018-08-04T07:14:33.691Z,41.19
2018-08-04T07:22:38.093Z,39.10
2018-08-04T07:25:14.691Z,39.73
2018-08-04T07:27:44.515Z,39.83
2018-08-04T08:12:19.690Z,33.07
2018-08-04T08:14:49.837Z,34.81
2018-08-04T08:39:51.067Z,34.93
2018-08-04T08:42:20.202Z,34.68
2018-08-04T08:44:52.214Z,34.64
2018-08-04T09:52:20.978Z,31.13
2018-08-04T11:05:09.647Z,25.61
2018-08-04T11:16:17.903Z,25.83
2018-08-04T11:46:57.636Z,27.11
2018-08-04T11:55:06.819Z,27.28
2018-08-04T11:57:39.719Z,27.29
2018-08-04T12:25:44.461Z,29.86
2018-08-04T12:28:14.601Z,27.87
2018-08-04T12:30:43.594Z,29.43
2018-08-04T12:36:05.901Z,30.17
2018-08-04T12:38:35.370Z,28.54
2018-08-04T12:41:04.876Z,29.85
2018-08-04T12:43:34.405Z,30.23
2018-08-04T12:46:03.803Z,30.53
2018-08-04T13:02:40.349Z,29.85
2018-08-04T13:05:09.351Z,27.83
2018-08-04T13:07:40.272Z,28.96
2018-08-04T13:18:32.965Z,28.30
2018-08-04T13:26:42.141Z,26.91
2018-08-04T13:29:11.339Z,26.91
2018-08-04T13:34:46.840Z,24.41
2018-08-04T14:08:17.676Z,25.06
2018-08-04T14:10:51.067Z,25.03
2018-08-04T14:13:23.057Z,25.65
2018-08-04T14:24:24.058Z,25.83
2018-08-04T14:26:54.895Z,25.70
2018-08-04T14:29:26.517Z,25.66
2018-08-04T14:43:12.154Z,24.96
2018-08-04T15:22:07.318Z,22.07
2018-08-04T15:24:42.622Z,21.97
2018-08-04T15:27:27.098Z,21.17
2018-08-04T15:30:15.174Z,20.83
2018-08-04T15:32:53.504Z,20.27
2018-08-04T15:49:28.897Z,19.44
2018-08-04T15:52:04.289Z,19.39
2018-08-04T15:54:38.893Z,19.58
2018-08-04T16:58:45.833Z,23.39
2018-08-04T17:01:16.252Z,23.40
2018-08-04T17:03:44.951Z,23.38
2018-08-04T17:06:14.852Z,21.14
2018-08-04T17:08:46.633Z,22.17
2018-08-04T17:11:19.272Z,22.05
2018-08-04T17:13:49.476Z,22.49
2018-08-04T17:16:18.576Z,22.97
2018-08-04T17:18:47.684Z,23.26
2018-08-04T17:21:16.345Z,21.24
2018-08-04T17:23:44.978Z,21.06
2018-08-04T17:29:31.702Z,21.20
2018-08-04T17:32:00.716Z,23.00
2018-08-04T17:34:29.629Z,23.85
2018-08-04T17:36:59.462Z,23.02
2018-08-04T17:39:28.409Z,25.18
2018-08-04T17:41:57.426Z,25.93
2018-08-04T17:44:26.077Z,26.49
2018-08-04T17:46:54.772Z,26.98
2018-08-04T17:49:23.428Z,27.60
2018-08-04T17:52:00.121Z,28.04
2018-08-04T17:54:28.737Z,28.57
2018-08-04T17:56:57.412Z,29.18
2018-08-04T18:07:51.519Z,30.62
2018-08-04T18:10:20.169Z,31.12
2018-08-04T18:12:48.818Z,31.53
2018-08-04T18:18:05.029Z,32.03
2018-08-04T18:26:16.558Z,32.75
2018-08-04T18:31:40.454Z,33.30
2018-08-04T18:34:10.061Z,33.62
2018-08-04T18:53:31.888Z,35.92
2018-08-04T18:56:15.085Z,36.30
2018-08-04T19:01:42.035Z,36.82
2018-08-04T19:04:11.421Z,36.88
2018-08-04T19:06:41.076Z,37.08
2018-08-04T19:09:10.668Z,37.27
2018-08-04T19:11:41.944Z,37.12
2018-08-04T19:19:53.537Z,38.19
2018-08-04T19:22:22.242Z,38.82
2018-08-04T19:30:27.035Z,38.28
2018-08-04T19:38:32.776Z,39.12
2018-08-04T19:41:01.462Z,39.31
2018-08-04T19:52:00.599Z,40.43
2018-08-04T20:00:12.022Z,40.60
2018-08-04T20:19:41.709Z,41.64
2018-08-04T20:22:10.377Z,41.92
2018-08-04T20:24:39.011Z,41.91
2018-08-04T20:52:20.881Z,41.70
2018-08-04T20:54:50.431Z,41.78
2018-08-04T20:57:19.987Z,42.04
2018-08-04T21:05:26.699Z,43.25
2018-08-04T21:16:19.648Z,43.46
2018-08-04T21:21:40.445Z,44.40
2018-08-04T21:24:16.803Z,44.33
2018-08-04T21:32:20.652Z,44.46
2018-08-04T21:46:07.261Z,45.54
2018-08-04T21:48:36.339Z,45.39
2018-08-04T21:51:15.701Z,45.76
2018-08-04T21:53:45.294Z,45.80
2018-08-04T22:04:37.405Z,46.51
2018-08-04T22:07:22.100Z,46.19
2018-08-04T22:12:39.214Z,47.14
2018-08-04T22:15:08.696Z,47.14
2018-08-04T22:23:16.029Z,47.60
2018-08-04T22:25:56.023Z,48.44
2018-08-04T22:39:36.769Z,48.76
2018-08-04T22:50:29.230Z,49.32
2018-08-04T22:55:45.768Z,49.76
2018-08-04T23:37:29.183Z,53.31
2018-08-04T23:45:41.026Z,54.44
2018-08-04T23:50:57.195Z,54.99
2018-08-04T23:53:27.560Z,54.87
2018-08-04T23:55:56.561Z,54.36
2018-08-04T23:58:29.188Z,54.46
